メインページ
METAR-TAF:

METAR-TAF

空港 :

東京国際空港

東京 / 羽田国際空港, 日本

緯度: 35-33N, 経度: 139-47E, 海抜: 5m

現時点の気象観測

当レポートは29分前の09:00(UTC)に作成
北/北東の風 10kt
気温 15°C
湿度 100%
気圧 1010 hPa
視程: 3000m
高度300ftの雲はほとんどない
高度500ftの千切れ雲あり
高度1000ftの千切れ雲あり
小雨, 靄,

METAR: RJTT 240900Z 03010KT 3000 -RA BR FEW003 BKN005 BKN010 15/15 Q1010 NOSIG

時間: 18:29 (09:29 UTC)

予報

当レポートは1時間41分前の07:48(UTC)に作成
予報は24日の 07時(UTC)から 25日の 12時(UTC)まで有効
の風 10kt
視程: 8000m
高度800ftの雲はほとんどない
高度1500ftの千切れ雲あり
小雨
24日の 07時(UTC)から 24日の 11時(UTC)まで一時的に
視程: 3000m
高度300ftの雲はほとんどない
高度500ftの千切れ雲あり
小雨, 靄
24日の 10時(UTC)から 24日の 12時(UTC)まで徐々に
の風 14kt
24日の 11時(UTC)から 24日の 15時(UTC)まで一時的に
視程: 3000m
高度300ftの雲はほとんどない
高度500ftの千切れ雲あり
にわか雨, 靄
24日の 15時(UTC)から 24日の 21時(UTC)まで一時的に
高度300ftの雲はほとんどない
高度500ftの千切れ雲あり
24日の 21時(UTC)から 25日の 00時(UTC)まで徐々に
南東の風 6kt

TAF: RJTT 240748Z 2407/2512 08010KT 8000 -RA FEW008 BKN015 TEMPO 2407/2411 3000 -RA BR FEW003 BKN005 BECMG 2410/2412 01014KT TEMPO 2411/2415 3000 SHRA BR FEW003 BKN005 TEMPO 2415/2421 FEW003 BKN005 BECMG 2421/2500 14006KT

4,000以上の空港の気象観測と天気予報(METAR報とTAF報)

利用可能な観測所は地図上に黄色い丸と赤い丸で示す。

丸の上にカーソルを重ねると観測所名を参照できる。

次にクリックすると気象観測と天気予報を参照できる。

マップの切り替え:黒色「×」印の緑ボタンをクリックして拡大、「-」印の緑ボタンをクリックして縮小、緑色の三角印をクリックして隣りの地図に切り替え


METAR-TAF: